Time;durP1;ratioP1;P1;durP2;ratioP2;P2;SDS_P1;SDS_P2;PMS_P1;PMS_P2;Temp;Humidity;BMP_temperature;BMP_pressure;BME280_temperature;BME280_humidity;BME280_pressure;Samples;Min_cycle;Max_cycle;Signal;HPM_P1;HPM_P2
2021/11/06 00:02:39;;;;;;;20.60;11.73;;;;;;;;;;5110772;27;20466;-68
2021/11/06 00:08:25;;;;;;;19.33;10.63;;;;;;;;;;5131169;27;20112;-71
2021/11/06 00:10:52;;;;;;;18.13;10.68;;;;;;;;;;5110853;28;20036;-71
2021/11/06 00:13:18;;;;;;;24.70;12.02;;;;;;;;;;5110951;28;20020;-70
2021/11/06 00:16:34;;;;;;;19.90;12.40;;;;;;;;;;5110961;27;20380;-68
2021/11/06 00:19:00;;;;;;;18.52;10.88;;;;;;;;;;5110937;28;20020;-70
2021/11/06 00:23:20;;;;;;;20.80;9.73;;;;;;;;;;5110787;27;20924;-70
2021/11/06 00:25:46;;;;;;;17.95;9.40;;;;;;;;;;5111137;28;20028;-70
2021/11/06 00:28:12;;;;;;;21.98;10.52;;;;;;;;;;5111005;28;20027;-69
2021/11/06 00:32:19;;;;;;;18.92;11.20;;;;;;;;;;5110797;27;20458;-70
2021/11/06 00:34:45;;;;;;;18.60;11.40;;;;;;;;;;5111258;28;20089;-70
2021/11/06 00:38:42;;;;;;;25.88;12.63;;;;;;;;;;5111170;27;20889;-70
2021/11/06 00:41:08;;;;;;;21.10;12.30;;;;;;;;;;5111070;28;20384;-68
2021/11/06 00:43:34;;;;;;;25.15;12.55;;;;;;;;;;5110441;28;20020;-70
2021/11/06 00:46:01;;;;;;;17.55;10.13;;;;;;;;;;5110887;28;20030;-70
2021/11/06 00:48:27;;;;;;;21.40;12.15;;;;;;;;;;5110920;28;20019;-70
2021/11/06 00:55:17;;;;;;;35.65;17.58;;;;;;;;;;5111133;27;20461;-68
2021/11/06 00:58:25;;;;;;;25.42;13.98;;;;;;;;;;5131170;27;20120;-68
2021/11/06 01:00:51;;;;;;;26.42;13.95;;;;;;;;;;5111047;28;20042;-69
2021/11/06 01:05:20;;;;;;;21.27;13.40;;;;;;;;;;5110848;27;20945;-68
2021/11/06 01:09:39;;;;;;;19.88;11.10;;;;;;;;;;5111469;27;20462;-68
2021/11/06 01:13:07;;;;;;;20.98;12.25;;;;;;;;;;5110556;27;20392;-68
2021/11/06 01:15:33;;;;;;;18.40;10.65;;;;;;;;;;5110876;28;20032;-68
2021/11/06 01:19:25;;;;;;;26.58;12.70;;;;;;;;;;5110935;27;20458;-69
2021/11/06 01:23:53;;;;;;;16.88;9.98;;;;;;;;;;5152277;27;20462;-68
2021/11/06 01:26:20;;;;;;;17.27;10.07;;;;;;;;;;5151723;27;20027;-70
2021/11/06 01:31:07;;;;;;;18.08;9.52;;;;;;;;;;5131511;27;20112;-67
2021/11/06 01:34:42;;;;;;;14.80;8.95;;;;;;;;;;5111443;27;20393;-68
2021/11/06 01:37:08;;;;;;;15.73;8.98;;;;;;;;;;5110815;28;20024;-69
2021/11/06 01:39:34;;;;;;;15.45;9.07;;;;;;;;;;5110458;28;20024;-68
2021/11/06 01:42:01;;;;;;;13.70;8.93;;;;;;;;;;5110781;28;20132;-69
2021/11/06 01:44:28;;;;;;;18.45;9.15;;;;;;;;;;5110735;28;20024;-68
2021/11/06 01:50:06;;;;;;;21.38;9.80;;;;;;;;;;5111060;27;20430;-70
2021/11/06 01:52:32;;;;;;;17.05;9.63;;;;;;;;;;5110867;28;20032;-68
2021/11/06 01:59:20;;;;;;;18.58;9.57;;;;;;;;;;5111280;27;20396;-70
2021/11/06 02:01:46;;;;;;;19.15;11.40;;;;;;;;;;5110750;28;20016;-68
2021/11/06 02:04:43;;;;;;;17.35;10.75;;;;;;;;;;5111035;27;20396;-68
2021/11/06 02:07:09;;;;;;;23.30;12.60;;;;;;;;;;5110945;28;20032;-71
2021/11/06 02:09:35;;;;;;;21.63;12.57;;;;;;;;;;5110544;28;20024;-71
2021/11/06 02:12:01;;;;;;;19.92;11.48;;;;;;;;;;5110742;28;20028;-68
2021/11/06 02:14:27;;;;;;;20.80;12.88;;;;;;;;;;5110293;28;20051;-68
2021/11/06 02:19:30;;;;;;;21.40;11.25;;;;;;;;;;5110864;27;20458;-68
2021/11/06 02:23:42;;;;;;;18.45;11.68;;;;;;;;;;5110418;27;20584;-68
2021/11/06 02:26:09;;;;;;;26.08;12.60;;;;;;;;;;5090529;28;20020;-68
2021/11/06 02:28:35;;;;;;;25.40;15.13;;;;;;;;;;5090227;28;20028;-68
2021/11/06 02:31:02;;;;;;;25.17;13.25;;;;;;;;;;5090544;28;20032;-70
2021/11/06 02:33:28;;;;;;;21.75;12.48;;;;;;;;;;5090656;28;20042;-70
2021/11/06 02:40:20;;;;;;;22.50;12.13;;;;;;;;;;5110892;27;20113;-68
2021/11/06 02:42:46;;;;;;;23.52;12.88;;;;;;;;;;5090494;28;20020;-70
2021/11/06 02:45:58;;;;;;;23.05;13.32;;;;;;;;;;5111257;27;20117;-68
2021/11/06 02:48:24;;;;;;;24.98;13.32;;;;;;;;;;5090495;28;20021;-69
2021/11/06 02:52:31;;;;;;;19.45;11.98;;;;;;;;;;5111468;27;20855;-68
2021/11/06 02:57:45;;;;;;;19.10;11.40;;;;;;;;;;5131005;27;20461;-68
2021/11/06 03:00:11;;;;;;;21.55;11.88;;;;;;;;;;5110866;28;20023;-68
2021/11/06 03:02:38;;;;;;;16.55;10.73;;;;;;;;;;5111027;28;20020;-68
2021/11/06 03:05:08;;;;;;;17.48;10.60;;;;;;;;;;5110466;28;20464;-71
2021/11/06 03:07:35;;;;;;;20.13;12.65;;;;;;;;;;5111093;28;20413;-71
2021/11/06 03:10:01;;;;;;;25.40;13.57;;;;;;;;;;5110742;28;20031;-69
2021/11/06 03:14:47;;;;;;;24.42;13.93;;;;;;;;;;5111141;27;20438;-68
2021/11/06 03:17:13;;;;;;;28.25;15.93;;;;;;;;;;5110950;28;20393;-70
2021/11/06 03:22:17;;;;;;;24.88;15.07;;;;;;;;;;5131516;27;20314;-70
2021/11/06 03:25:36;;;;;;;28.30;17.35;;;;;;;;;;5110661;27;20108;-68
2021/11/06 03:28:43;;;;;;;23.90;13.98;;;;;;;;;;5111043;27;20461;-70
2021/11/06 03:31:10;;;;;;;19.75;11.43;;;;;;;;;;5110950;28;20030;-70
2021/11/06 03:35:24;;;;;;;24.52;13.02;;;;;;;;;;5110970;27;20397;-70
2021/11/06 03:37:50;;;;;;;23.58;12.85;;;;;;;;;;5110903;28;20034;-68
2021/11/06 03:41:18;;;;;;;19.45;11.93;;;;;;;;;;5110782;27;20946;-68
2021/11/06 03:43:44;;;;;;;22.42;12.70;;;;;;;;;;5109624;28;20476;-67
2021/11/06 03:51:55;;;;;;;24.70;14.63;;;;;;;;;;5111613;27;20465;-68
2021/11/06 03:56:36;;;;;;;29.95;15.57;;;;;;;;;;5131493;27;20126;-68
2021/11/06 03:59:11;;;;;;;23.60;14.27;;;;;;;;;;5111043;27;20401;-68
2021/11/06 04:02:16;;;;;;;20.27;12.43;;;;;;;;;;5111134;27;20396;-68
2021/11/06 04:04:42;;;;;;;24.48;12.98;;;;;;;;;;5110861;28;20016;-69
2021/11/06 04:07:08;;;;;;;23.52;12.88;;;;;;;;;;5109222;28;20419;-71
2021/11/06 04:09:34;;;;;;;21.33;11.27;;;;;;;;;;5109538;28;20110;-70
2021/11/06 04:12:01;;;;;;;21.10;11.25;;;;;;;;;;5109458;28;20459;-71
2021/11/06 04:14:27;;;;;;;17.92;11.63;;;;;;;;;;5110395;28;20503;-70
2021/11/06 04:18:50;;;;;;;22.27;13.45;;;;;;;;;;5111586;27;20453;-68
2021/11/06 04:21:17;;;;;;;23.88;14.30;;;;;;;;;;5110586;28;20130;-70
2021/11/06 04:23:43;;;;;;;23.98;11.90;;;;;;;;;;5110737;28;20425;-68
2021/11/06 04:26:09;;;;;;;20.40;11.77;;;;;;;;;;5110921;28;20027;-68
2021/11/06 04:29:20;;;;;;;19.50;12.13;;;;;;;;;;5110781;27;20950;-68
2021/11/06 04:31:46;;;;;;;25.20;15.55;;;;;;;;;;5110936;28;20032;-70
2021/11/06 04:34:34;;;;;;;27.13;15.48;;;;;;;;;;5111767;27;20438;-68
2021/11/06 04:37:01;;;;;;;21.00;12.50;;;;;;;;;;5110401;28;20024;-68
2021/11/06 04:39:27;;;;;;;19.10;11.70;;;;;;;;;;5110989;28;20365;-71
2021/11/06 04:43:23;;;;;;;19.58;10.75;;;;;;;;;;5110922;27;20446;-69
2021/11/06 04:47:52;;;;;;;30.58;22.42;;;;;;;;;;5111314;27;20392;-68
2021/11/06 04:52:24;;;;;;;33.25;27.15;;;;;;;;;;5111229;27;20839;-70
2021/11/06 04:54:51;;;;;;;41.85;31.30;;;;;;;;;;5110935;28;20030;-70
2021/11/06 04:57:17;;;;;;;35.65;28.27;;;;;;;;;;5110580;28;20522;-68
2021/11/06 05:22:14;;;;;;;31.20;22.80;;;;;;;;;;5111927;27;20396;-71
2021/11/06 05:25:39;;;;;;;29.00;20.10;;;;;;;;;;5111661;27;20388;-68
2021/11/06 05:28:05;;;;;;;26.58;16.73;;;;;;;;;;5111111;28;20032;-68
2021/11/06 05:30:32;;;;;;;26.02;15.88;;;;;;;;;;5110391;28;20106;-68
2021/11/06 05:32:58;;;;;;;45.03;27.30;;;;;;;;;;5111018;28;20391;-69
2021/11/06 05:35:24;;;;;;;36.47;19.98;;;;;;;;;;5110890;28;20026;-68
2021/11/06 05:39:04;;;;;;;22.80;15.13;;;;;;;;;;5110761;27;20404;-70
2021/11/06 05:42:42;;;;;;;26.33;15.85;;;;;;;;;;5111119;27;20397;-70
2021/11/06 05:46:09;;;;;;;25.92;15.88;;;;;;;;;;5110935;27;20907;-70
2021/11/06 05:49:24;;;;;;;23.75;14.93;;;;;;;;;;5111926;27;20454;-68
2021/11/06 05:51:51;;;;;;;23.55;15.10;;;;;;;;;;5109497;28;20448;-69
2021/11/06 05:54:17;;;;;;;31.10;19.65;;;;;;;;;;5111306;28;20028;-68
2021/11/06 05:56:43;;;;;;;32.22;19.40;;;;;;;;;;5110965;28;20470;-69
2021/11/06 05:59:09;;;;;;;33.10;21.52;;;;;;;;;;5110538;28;20028;-70
2021/11/06 06:01:36;;;;;;;30.70;20.67;;;;;;;;;;5111040;28;20156;-71
2021/11/06 06:04:46;;;;;;;31.98;20.80;;;;;;;;;;5112009;27;20462;-70
2021/11/06 06:07:12;;;;;;;34.10;22.13;;;;;;;;;;5110810;28;20027;-70
2021/11/06 06:13:50;;;;;;;32.25;21.33;;;;;;;;;;5110937;27;20461;-70
2021/11/06 06:16:16;;;;;;;33.80;19.65;;;;;;;;;;5111158;28;20019;-70
2021/11/06 06:18:45;;;;;;;49.65;27.65;;;;;;;;;;5111335;28;20050;-70
2021/11/06 06:22:19;;;;;;;57.85;33.78;;;;;;;;;;5111964;27;20447;-70
2021/11/06 06:27:34;;;;;;;32.08;18.35;;;;;;;;;;5110907;27;20454;-68
2021/11/06 06:30:01;;;;;;;23.58;14.23;;;;;;;;;;5111389;28;20019;-69
2021/11/06 06:32:27;;;;;;;20.13;12.23;;;;;;;;;;5111038;28;20024;-69
2021/11/06 06:38:55;;;;;;;21.85;12.75;;;;;;;;;;5111347;27;20454;-69
2021/11/06 06:41:22;;;;;;;22.55;13.13;;;;;;;;;;5110697;28;20028;-70
2021/11/06 06:43:48;;;;;;;20.75;13.63;;;;;;;;;;5111341;28;20069;-71
2021/11/06 06:46:14;;;;;;;19.73;13.57;;;;;;;;;;5111042;28;20042;-71
2021/11/06 06:48:40;;;;;;;22.42;14.45;;;;;;;;;;5110601;28;20020;-71
2021/11/06 06:51:06;;;;;;;18.30;13.05;;;;;;;;;;5111072;28;20051;-70
2021/11/06 06:54:41;;;;;;;28.52;16.50;;;;;;;;;;5110927;27;20495;-70
2021/11/06 07:01:38;;;;;;;26.30;16.45;;;;;;;;;;5111425;27;20381;-69
2021/11/06 07:04:04;;;;;;;30.80;18.73;;;;;;;;;;5111101;28;20035;-71
2021/11/06 07:06:30;;;;;;;25.77;15.85;;;;;;;;;;5111194;28;20025;-71
2021/11/06 07:09:00;;;;;;;22.75;14.10;;;;;;;;;;5110818;28;20026;-70
2021/11/06 07:11:27;;;;;;;25.13;14.65;;;;;;;;;;5111020;28;20118;-70
2021/11/06 07:13:53;;;;;;;28.27;16.45;;;;;;;;;;5109668;28;20030;-69
2021/11/06 07:16:19;;;;;;;25.88;16.73;;;;;;;;;;5110424;28;20030;-69
2021/11/06 07:18:45;;;;;;;29.95;18.73;;;;;;;;;;5110845;28;20024;-70
2021/11/06 07:23:07;;;;;;;18.48;13.40;;;;;;;;;;5111349;27;20458;-70
2021/11/06 07:25:34;;;;;;;23.27;16.00;;;;;;;;;;5110923;28;20020;-70
2021/11/06 07:28:00;;;;;;;34.63;22.40;;;;;;;;;;5110956;28;20020;-69
2021/11/06 07:30:27;;;;;;;31.85;23.33;;;;;;;;;;5110632;28;20088;-68
2021/11/06 07:34:01;;;;;;;35.55;25.38;;;;;;;;;;5111095;27;20392;-69
2021/11/06 07:37:53;;;;;;;30.45;22.90;;;;;;;;;;5110939;27;20466;-70
2021/11/06 07:40:19;;;;;;;40.00;23.70;;;;;;;;;;5110986;28;20016;-69
2021/11/06 07:44:33;;;;;;;29.27;20.23;;;;;;;;;;5111140;27;20923;-70
2021/11/06 07:48:50;;;;;;;37.03;23.42;;;;;;;;;;5173048;27;20131;-70
2021/11/06 07:51:17;;;;;;;35.67;23.77;;;;;;;;;;5133418;27;20465;-70
2021/11/06 07:53:43;;;;;;;38.83;27.75;;;;;;;;;;5152192;27;20064;-70
2021/11/06 07:56:10;;;;;;;40.78;27.35;;;;;;;;;;5152187;27;20054;-70
2021/11/06 07:58:36;;;;;;;35.10;24.00;;;;;;;;;;5151886;27;20106;-69
2021/11/06 08:02:00;;;;;;;39.38;25.83;;;;;;;;;;5111226;27;20454;-71
2021/11/06 08:04:26;;;;;;;42.33;27.48;;;;;;;;;;5110967;28;20383;-70
2021/11/06 08:07:19;;;;;;;39.67;25.52;;;;;;;;;;5110905;27;20988;-70
2021/11/06 08:11:14;;;;;;;40.17;25.75;;;;;;;;;;5110935;27;20446;-70
2021/11/06 08:13:40;;;;;;;40.45;27.08;;;;;;;;;;5110679;28;20424;-70
2021/11/06 08:16:06;;;;;;;45.30;29.02;;;;;;;;;;5111063;28;20525;-70
2021/11/06 08:19:31;;;;;;;43.67;28.67;;;;;;;;;;5132190;27;20563;-71
2021/11/06 08:21:57;;;;;;;40.65;27.55;;;;;;;;;;5092779;28;20372;-71
2021/11/06 08:28:19;;;;;;;36.97;24.88;;;;;;;;;;5111117;27;20401;-70
2021/11/06 08:36:16;;;;;;;41.47;24.38;;;;;;;;;;5111158;27;20450;-69
2021/11/06 08:40:03;;;;;;;39.38;22.25;;;;;;;;;;5110623;27;20466;-70
2021/11/06 08:42:30;;;;;;;29.88;19.05;;;;;;;;;;5110848;28;20042;-69
2021/11/06 08:44:56;;;;;;;27.83;17.98;;;;;;;;;;5110860;28;20459;-70
2021/11/06 08:48:33;;;;;;;28.45;17.25;;;;;;;;;;5110670;27;20450;-68
2021/11/06 08:50:59;;;;;;;28.15;20.67;;;;;;;;;;5110856;28;20055;-70
2021/11/06 08:53:26;;;;;;;29.25;18.67;;;;;;;;;;5110886;28;20035;-69
2021/11/06 08:55:52;;;;;;;32.97;17.98;;;;;;;;;;5110611;28;20022;-69
2021/11/06 09:02:59;;;;;;;27.73;16.63;;;;;;;;;;5110670;27;20844;-71
2021/11/06 09:07:24;;;;;;;23.95;15.80;;;;;;;;;;5110911;27;20454;-70
2021/11/06 09:09:50;;;;;;;28.35;18.83;;;;;;;;;;5110532;28;20023;-69
2021/11/06 09:12:56;;;;;;;24.38;15.70;;;;;;;;;;5111021;27;20899;-70
2021/11/06 09:15:23;;;;;;;24.23;14.02;;;;;;;;;;5110412;28;20069;-70
2021/11/06 09:20:16;;;;;;;20.08;13.60;;;;;;;;;;5110946;27;20400;-70
2021/11/06 09:22:42;;;;;;;33.20;14.02;;;;;;;;;;5109348;28;20028;-71
2021/11/06 09:25:09;;;;;;;23.38;13.70;;;;;;;;;;5110674;28;20024;-70
2021/11/06 09:27:35;;;;;;;23.45;13.27;;;;;;;;;;5110972;28;20031;-70
2021/11/06 09:30:38;;;;;;;17.73;10.82;;;;;;;;;;5110863;27;20838;-70
2021/11/06 09:35:56;;;;;;;19.13;11.93;;;;;;;;;;5111486;27;20466;-70
2021/11/06 09:38:22;;;;;;;15.13;9.00;;;;;;;;;;5110495;28;20024;-69
2021/11/06 09:40:48;;;;;;;17.88;10.63;;;;;;;;;;5110803;28;20020;-70
2021/11/06 09:43:18;;;;;;;19.15;10.27;;;;;;;;;;5110562;28;20027;-69
2021/11/06 09:47:16;;;;;;;21.90;12.48;;;;;;;;;;5131327;27;20116;-71
2021/11/06 09:51:10;;;;;;;20.70;12.25;;;;;;;;;;5110633;27;20389;-69
2021/11/06 09:53:40;;;;;;;18.65;11.80;;;;;;;;;;5111131;28;20107;-69
2021/11/06 09:56:11;;;;;;;20.27;10.48;;;;;;;;;;5110816;28;20038;-69
2021/11/06 09:58:37;;;;;;;15.18;9.38;;;;;;;;;;5110487;28;20055;-69
2021/11/06 10:01:04;;;;;;;17.88;10.20;;;;;;;;;;5110792;28;20019;-71
2021/11/06 10:03:30;;;;;;;20.45;10.43;;;;;;;;;;5110978;28;20020;-70
2021/11/06 10:10:41;;;;;;;19.17;11.55;;;;;;;;;;5131716;27;20116;-70
2021/11/06 10:13:07;;;;;;;17.80;10.95;;;;;;;;;;5110639;28;20035;-70
2021/11/06 10:15:40;;;;;;;21.27;11.10;;;;;;;;;;5111010;28;20028;-69
2021/11/06 10:18:17;;;;;;;19.02;11.32;;;;;;;;;;5111109;28;20103;-69
2021/11/06 10:20:45;;;;;;;22.77;13.80;;;;;;;;;;5110728;28;20125;-70
2021/11/06 10:23:11;;;;;;;24.33;14.75;;;;;;;;;;5110645;28;20463;-71
2021/11/06 10:25:38;;;;;;;25.90;13.27;;;;;;;;;;5110221;28;20027;-70
2021/11/06 10:28:06;;;;;;;22.95;13.77;;;;;;;;;;5092352;28;20020;-70
2021/11/06 10:31:12;;;;;;;20.42;11.65;;;;;;;;;;5070322;28;20400;-70
2021/11/06 10:33:46;;;;;;;21.60;12.85;;;;;;;;;;5070251;28;20108;-70
2021/11/06 10:36:16;;;;;;;15.98;9.10;;;;;;;;;;5070422;28;20063;-69
2021/11/06 10:38:42;;;;;;;13.43;7.18;;;;;;;;;;5070751;28;20115;-70
2021/11/06 10:41:09;;;;;;;19.85;10.23;;;;;;;;;;5070034;28;20491;-70
2021/11/06 10:43:37;;;;;;;22.63;12.45;;;;;;;;;;5052381;28;20028;-70
2021/11/06 10:46:04;;;;;;;17.20;8.88;;;;;;;;;;5070076;28;20028;-69
2021/11/06 10:48:34;;;;;;;18.63;9.73;;;;;;;;;;5069661;28;20020;-69
2021/11/06 10:52:17;;;;;;;20.65;12.05;;;;;;;;;;5090670;27;20386;-70
2021/11/06 10:55:03;;;;;;;19.85;12.05;;;;;;;;;;5090300;28;20028;-70
2021/11/06 10:57:30;;;;;;;17.83;12.10;;;;;;;;;;5090655;28;20026;-70
2021/11/06 11:00:12;;;;;;;20.58;9.23;;;;;;;;;;5090509;28;20425;-69
2021/11/06 11:02:39;;;;;;;17.35;8.23;;;;;;;;;;5089930;28;20082;-69
2021/11/06 11:05:31;;;;;;;31.63;16.92;;;;;;;;;;5193926;27;20520;-68
2021/11/06 11:08:01;;;;;;;20.80;11.50;;;;;;;;;;5172620;27;20038;-69
2021/11/06 11:10:27;;;;;;;23.70;14.07;;;;;;;;;;5172734;27;20029;-70
2021/11/06 11:13:07;;;;;;;15.68;10.10;;;;;;;;;;5172628;27;20042;-70
2021/11/06 11:15:53;;;;;;;16.70;9.77;;;;;;;;;;5110755;27;20396;-69
2021/11/06 11:18:37;;;;;;;19.30;10.50;;;;;;;;;;5110896;28;20024;-69
2021/11/06 11:21:10;;;;;;;17.63;10.40;;;;;;;;;;5109648;28;20085;-70
2021/11/06 11:23:37;;;;;;;21.15;14.48;;;;;;;;;;5110334;28;20099;-69
2021/11/06 11:27:45;;;;;;;12.73;8.20;;;;;;;;;;5111172;27;20392;-71
2021/11/06 11:31:59;;;;;;;20.13;11.82;;;;;;;;;;5111096;27;20396;-69
2021/11/06 11:35:25;;;;;;;12.05;9.15;;;;;;;;;;5111741;27;20396;-70
2021/11/06 11:37:51;;;;;;;24.48;9.38;;;;;;;;;;5110669;28;20021;-71
2021/11/06 11:40:17;;;;;;;12.80;7.28;;;;;;;;;;5110899;28;20070;-70
2021/11/06 11:42:56;;;;;;;12.95;7.28;;;;;;;;;;5110657;28;20432;-70
2021/11/06 11:47:08;;;;;;;14.98;7.43;;;;;;;;;;5110677;27;20117;-69
2021/11/06 11:49:38;;;;;;;14.43;7.13;;;;;;;;;;5110891;28;20031;-69
2021/11/06 11:53:10;;;;;;;16.75;6.68;;;;;;;;;;5111636;27;20446;-70
2021/11/06 11:55:39;;;;;;;10.85;6.95;;;;;;;;;;5110988;28;20028;-69
2021/11/06 11:58:08;;;;;;;14.75;6.95;;;;;;;;;;5110534;28;20024;-70
2021/11/06 12:00:36;;;;;;;14.27;7.57;;;;;;;;;;5111032;28;20020;-69
2021/11/06 12:03:04;;;;;;;12.13;5.95;;;;;;;;;;5110930;28;20052;-70
2021/11/06 12:05:31;;;;;;;11.27;6.05;;;;;;;;;;5110506;28;20479;-69
2021/11/06 12:08:26;;;;;;;12.07;6.38;;;;;;;;;;5110967;28;20075;-69
2021/11/06 12:11:34;;;;;;;14.27;9.20;;;;;;;;;;5110811;27;20450;-69
2021/11/06 12:14:34;;;;;;;19.00;7.70;;;;;;;;;;5110721;27;20841;-70
2021/11/06 12:17:44;;;;;;;11.70;7.43;;;;;;;;;;5070436;28;20461;-69
2021/11/06 12:20:31;;;;;;;14.88;8.35;;;;;;;;;;5069741;28;20039;-68
2021/11/06 12:22:57;;;;;;;13.93;8.23;;;;;;;;;;5070254;28;20029;-69
2021/11/06 12:26:05;;;;;;;13.30;7.53;;;;;;;;;;5110693;27;20786;-69
2021/11/06 12:28:31;;;;;;;14.10;8.27;;;;;;;;;;5109442;28;20069;-70
2021/11/06 12:32:26;;;;;;;13.35;7.50;;;;;;;;;;5110891;27;20529;-69
2021/11/06 12:35:12;;;;;;;15.10;7.55;;;;;;;;;;5110821;28;20475;-71
2021/11/06 12:38:35;;;;;;;13.48;6.65;;;;;;;;;;5111648;27;20544;-70
2021/11/06 12:41:02;;;;;;;16.90;8.35;;;;;;;;;;5110567;28;20024;-70
2021/11/06 12:43:29;;;;;;;13.90;8.48;;;;;;;;;;5110854;28;20024;-70
2021/11/06 12:46:00;;;;;;;16.02;8.05;;;;;;;;;;5111059;28;20355;-69
2021/11/06 12:48:32;;;;;;;13.93;7.82;;;;;;;;;;5110775;28;20020;-70
2021/11/06 12:51:00;;;;;;;12.38;7.38;;;;;;;;;;5110934;28;20023;-70
2021/11/06 12:53:28;;;;;;;22.77;8.05;;;;;;;;;;5110269;28;20092;-70
2021/11/06 12:56:09;;;;;;;10.63;6.47;;;;;;;;;;5110632;28;20081;-70
2021/11/06 12:58:36;;;;;;;14.27;7.10;;;;;;;;;;5110758;28;20032;-70
2021/11/06 13:03:08;;;;;;;23.85;11.48;;;;;;;;;;5111580;27;20732;-70
2021/11/06 13:05:41;;;;;;;17.15;8.60;;;;;;;;;;5110866;28;20035;-70
2021/11/06 13:08:18;;;;;;;16.30;8.30;;;;;;;;;;5110916;28;20397;-70
2021/11/06 13:10:46;;;;;;;14.38;8.65;;;;;;;;;;5111094;28;20089;-70
2021/11/06 13:13:16;;;;;;;15.63;8.23;;;;;;;;;;5111127;28;20023;-70
2021/11/06 13:15:43;;;;;;;15.80;8.75;;;;;;;;;;5110525;28;20019;-70
2021/11/06 13:18:10;;;;;;;17.02;9.35;;;;;;;;;;5110610;28;20432;-70
2021/11/06 13:20:37;;;;;;;17.27;8.90;;;;;;;;;;5110665;28;20105;-70
2021/11/06 13:23:04;;;;;;;18.40;9.45;;;;;;;;;;5110263;28;20044;-70
2021/11/06 13:25:38;;;;;;;19.98;10.68;;;;;;;;;;5110432;28;20020;-69
2021/11/06 13:28:04;;;;;;;16.88;9.52;;;;;;;;;;5110580;28;20356;-70
2021/11/06 13:30:42;;;;;;;16.17;8.25;;;;;;;;;;5109956;28;20055;-70
2021/11/06 13:33:13;;;;;;;15.35;7.30;;;;;;;;;;5110437;28;20487;-70
2021/11/06 13:35:42;;;;;;;13.05;6.70;;;;;;;;;;5109931;28;20387;-70
2021/11/06 13:38:08;;;;;;;13.63;8.32;;;;;;;;;;5110159;28;20510;-70
2021/11/06 13:40:42;;;;;;;16.27;8.07;;;;;;;;;;5108947;28;20479;-70
2021/11/06 13:43:15;;;;;;;15.48;10.10;;;;;;;;;;5110123;28;20043;-71
2021/11/06 13:46:00;;;;;;;18.65;10.63;;;;;;;;;;5110919;28;20329;-70
2021/11/06 13:48:27;;;;;;;22.23;11.63;;;;;;;;;;5108729;28;20030;-69
2021/11/06 13:50:55;;;;;;;16.20;8.43;;;;;;;;;;5109586;28;20084;-70
2021/11/06 13:53:27;;;;;;;20.20;12.25;;;;;;;;;;5110126;28;20112;-70
2021/11/06 13:56:00;;;;;;;17.45;10.05;;;;;;;;;;5110045;28;20020;-70
2021/11/06 13:58:27;;;;;;;14.93;8.35;;;;;;;;;;5109829;28;20434;-70
2021/11/06 14:00:54;;;;;;;13.73;8.10;;;;;;;;;;5109568;28;20493;-70
2021/11/06 14:03:22;;;;;;;15.55;11.50;;;;;;;;;;5110358;28;20468;-70
2021/11/06 14:05:49;;;;;;;15.65;10.50;;;;;;;;;;5110041;28;20467;-70
2021/11/06 14:08:16;;;;;;;14.30;9.13;;;;;;;;;;5108480;28;20373;-69
2021/11/06 14:12:55;;;;;;;15.65;7.65;;;;;;;;;;5111518;27;20388;-69
2021/11/06 14:15:36;;;;;;;12.00;7.45;;;;;;;;;;5110878;28;20088;-70
2021/11/06 14:18:14;;;;;;;22.33;10.75;;;;;;;;;;5110515;28;20542;-72
2021/11/06 14:20:44;;;;;;;17.15;9.57;;;;;;;;;;5110880;28;20436;-69
2021/11/06 14:23:12;;;;;;;16.02;9.07;;;;;;;;;;5110718;28;20484;-70
2021/11/06 14:25:45;;;;;;;17.83;10.60;;;;;;;;;;5110229;28;20085;-71
2021/11/06 14:30:05;;;;;;;13.93;8.85;;;;;;;;;;5091357;27;20452;-69
2021/11/06 14:32:31;;;;;;;15.38;8.57;;;;;;;;;;5090259;28;20024;-70
2021/11/06 14:35:04;;;;;;;15.65;9.00;;;;;;;;;;5072306;28;20026;-70
2021/11/06 14:37:31;;;;;;;13.27;6.88;;;;;;;;;;5090452;28;20446;-70
2021/11/06 14:39:59;;;;;;;15.13;6.97;;;;;;;;;;5089967;28;20030;-70
2021/11/06 14:44:08;;;;;;;12.35;6.32;;;;;;;;;;5111074;27;20791;-70
2021/11/06 14:46:46;;;;;;;11.07;6.10;;;;;;;;;;5110508;28;20038;-69
2021/11/06 14:49:22;;;;;;;12.75;6.50;;;;;;;;;;5111423;27;20393;-71
2021/11/06 14:52:32;;;;;;;13.73;8.20;;;;;;;;;;5111246;27;20397;-69
2021/11/06 14:54:58;;;;;;;41.83;24.75;;;;;;;;;;5110426;28;20042;-69
2021/11/06 14:57:26;;;;;;;106.70;51.20;;;;;;;;;;5110723;28;20020;-69
2021/11/06 15:01:54;;;;;;;19.45;10.77;;;;;;;;;;5110669;27;20396;-70
2021/11/06 15:04:20;;;;;;;13.52;8.40;;;;;;;;;;5111168;28;20197;-71
2021/11/06 15:08:43;;;;;;;15.60;8.20;;;;;;;;;;5110766;27;20393;-70
2021/11/06 15:11:09;;;;;;;18.63;10.45;;;;;;;;;;5110921;28;20028;-71
2021/11/06 15:16:34;;;;;;;21.33;13.50;;;;;;;;;;5111469;27;20396;-70
2021/11/06 15:19:04;;;;;;;26.42;15.07;;;;;;;;;;5111091;28;20034;-69
2021/11/06 15:21:35;;;;;;;26.80;16.33;;;;;;;;;;5109189;28;20028;-69
2021/11/06 15:24:01;;;;;;;23.90;14.75;;;;;;;;;;5110872;28;20368;-70
2021/11/06 15:28:27;;;;;;;29.83;22.88;;;;;;;;;;5131429;27;20112;-70
2021/11/06 15:31:04;;;;;;;22.48;15.55;;;;;;;;;;5071086;28;20457;-70
2021/11/06 15:33:30;;;;;;;26.88;15.55;;;;;;;;;;5070699;28;20035;-70
2021/11/06 15:35:56;;;;;;;26.77;17.27;;;;;;;;;;5070097;28;20025;-70
2021/11/06 15:38:22;;;;;;;25.63;17.75;;;;;;;;;;5068951;28;20067;-70
2021/11/06 15:40:49;;;;;;;56.80;31.35;;;;;;;;;;5070128;28;20119;-70
2021/11/06 15:43:15;;;;;;;30.30;17.30;;;;;;;;;;5069706;28;20020;-69
2021/11/06 15:45:41;;;;;;;39.53;20.73;;;;;;;;;;5068612;28;20024;-70
2021/11/06 15:48:12;;;;;;;30.63;19.27;;;;;;;;;;5069986;28;20021;-70
2021/11/06 15:51:54;;;;;;;44.95;28.48;;;;;;;;;;5111383;27;20847;-70
2021/11/06 15:54:20;;;;;;;33.72;23.08;;;;;;;;;;5109555;28;20028;-71
2021/11/06 15:59:41;;;;;;;21.50;14.90;;;;;;;;;;5111336;27;20446;-70
2021/11/06 16:02:09;;;;;;;25.20;14.45;;;;;;;;;;5110861;28;20019;-71
2021/11/06 16:04:36;;;;;;;20.55;13.43;;;;;;;;;;5110293;28;20027;-71
2021/11/06 16:08:12;;;;;;;22.52;13.65;;;;;;;;;;5111672;27;20397;-71
2021/11/06 16:10:38;;;;;;;28.30;16.88;;;;;;;;;;5110536;28;20426;-70
2021/11/06 16:16:47;;;;;;;55.50;26.98;;;;;;;;;;5111288;27;20450;-71
2021/11/06 16:19:17;;;;;;;41.13;24.25;;;;;;;;;;5110608;28;20107;-71
2021/11/06 16:21:44;;;;;;;31.73;21.98;;;;;;;;;;5110864;28;20420;-69
2021/11/06 16:27:57;;;;;;;24.58;16.05;;;;;;;;;;5111805;27;20458;-71
2021/11/06 16:32:10;;;;;;;24.20;12.50;;;;;;;;;;5110809;27;20895;-68
2021/11/06 16:34:36;;;;;;;17.15;11.23;;;;;;;;;;5110690;28;20028;-68
2021/11/06 16:37:03;;;;;;;18.10;10.30;;;;;;;;;;5110872;28;20020;-68
2021/11/06 16:41:55;;;;;;;22.73;12.05;;;;;;;;;;5071223;28;20403;-70
2021/11/06 16:44:22;;;;;;;21.75;12.35;;;;;;;;;;5070650;28;20033;-70
2021/11/06 16:47:43;;;;;;;17.90;8.95;;;;;;;;;;5111039;27;20777;-70
2021/11/06 16:50:10;;;;;;;19.25;11.45;;;;;;;;;;5109506;28;20051;-70
2021/11/06 16:55:41;;;;;;;19.45;11.43;;;;;;;;;;5070708;28;20396;-70
2021/11/06 17:00:54;;;;;;;20.38;10.23;;;;;;;;;;5110622;27;20989;-70
2021/11/06 17:03:20;;;;;;;15.90;10.18;;;;;;;;;;5110953;28;20032;-70
2021/11/06 17:07:45;;;;;;;19.95;10.40;;;;;;;;;;5110827;27;20404;-70
2021/11/06 17:13:25;;;;;;;16.27;11.05;;;;;;;;;;5111091;27;20440;-70
2021/11/06 17:19:22;;;;;;;19.88;10.18;;;;;;;;;;5111667;27;20412;-70
2021/11/06 17:23:48;;;;;;;14.50;8.60;;;;;;;;;;5090410;27;20796;-70
2021/11/06 17:26:14;;;;;;;18.55;11.25;;;;;;;;;;5089084;28;20377;-69
2021/11/06 17:28:41;;;;;;;18.23;11.55;;;;;;;;;;5090259;28;20407;-70
2021/11/06 17:31:07;;;;;;;23.17;12.60;;;;;;;;;;5090549;28;20332;-70
2021/11/06 17:33:34;;;;;;;20.17;12.60;;;;;;;;;;5090260;28;20024;-70
2021/11/06 17:42:40;;;;;;;19.50;10.32;;;;;;;;;;5110704;27;20486;-69
2021/11/06 17:45:47;;;;;;;15.98;9.73;;;;;;;;;;5050744;28;20900;-70
2021/11/06 17:48:15;;;;;;;14.65;8.45;;;;;;;;;;5050284;28;20029;-69
2021/11/06 17:53:02;;;;;;;18.23;10.38;;;;;;;;;;5110845;27;20880;-70
2021/11/06 17:55:28;;;;;;;18.42;10.98;;;;;;;;;;5110460;28;20031;-70
2021/11/06 17:57:55;;;;;;;15.30;10.05;;;;;;;;;;5110824;28;20020;-70
2021/11/06 18:02:31;;;;;;;15.32;9.27;;;;;;;;;;5110476;27;20113;-70
2021/11/06 18:05:42;;;;;;;16.60;10.40;;;;;;;;;;5110861;27;20466;-68
2021/11/06 18:08:08;;;;;;;21.92;11.68;;;;;;;;;;5110710;28;20027;-70
2021/11/06 18:12:50;;;;;;;20.90;12.52;;;;;;;;;;5110754;27;20433;-70
2021/11/06 18:21:12;;;;;;;19.20;9.80;;;;;;;;;;5111512;27;20748;-67
2021/11/06 18:23:38;;;;;;;16.65;9.70;;;;;;;;;;5110509;28;20033;-70
2021/11/06 18:30:29;;;;;;;13.80;7.60;;;;;;;;;;5111366;27;20969;-69
2021/11/06 18:36:07;;;;;;;16.20;7.40;;;;;;;;;;5111301;27;20120;-69
2021/11/06 18:39:49;;;;;;;18.05;7.43;;;;;;;;;;5110756;27;20842;-70
2021/11/06 18:42:15;;;;;;;14.85;9.48;;;;;;;;;;5110984;28;20032;-70
2021/11/06 18:44:44;;;;;;;21.42;12.52;;;;;;;;;;5110457;28;20020;-70
2021/11/06 18:47:13;;;;;;;28.38;17.15;;;;;;;;;;5110849;28;20335;-71